Pintura, Utah
Current Conditions -  °F | °C
As of 2:53 PM on Sunday 21 Dec 2014 (Local Time) from KCDC Reporting Station
Few Clouds Few Clouds  
Wind Chill: 55°   Ceiling: Unl
Heat Index: 55°   Visibility: 10mi
Dew Point: 34°   Wind: 5mph
Humidity: 45%   Direction: 170°S
Pressure: 30.03"   Gusts: NA
Location:  37.7617°N, 113.219°W
Report Text: KCDC 212153Z AUTO 17004KT 10SM FEW049 13/01 A3003 RMK AO2 SLP150 T01280011
Loading
Personal Weather Stations






























Interactive Weather Map New forecast layout! Learn more

10-Day Weather Forecast

Advertisements
Track Severe Weather on mobile